Accueil
METAR-TAF:

METAR-TAF

Aéroports :

Ouagadougou, Burkina Faso

Aéroport international de Ouagadougou

latitude: 12-21N, longitude: 001-31W, altitude: 316 m

Observation

Le bulletin a été fait il y a 1 heure et 6 minutes, à 07:00 UTC
Vent 4 kt de ouest
Température 26°C
Humidité 70%
Pression 1013 hPa
Visibilité: 8000 m

METAR: DFFD 230700Z 27004KT 8000 NSC 26/20 Q1013 TEMPO 4000 HZ

Heure: 08:06 (08:06 UTC)

Prévision

Le bulletin a été fait il y a 9 heures et 6 minutes, à 23:00 UTC
Prévision valable du 23 à 00 UTC au 24 à 06 UTC
Vent 10 kt de direction variable
Visibilité: 8000 m
Temporairement
du 23 à 06 UTC au 23 à 10 UTC
Visibilité: 2500 m
brume sèche
Temporairement
du 23 à 17 UTC au 23 à 20 UTC
Visibilité: 4000 m
brume sèche

TAF: DFFD 222300Z 2300/2406 VRB10KT 8000 NSC TEMPO 2306/2310 2500 HZ TEMPO 2317/2320 4000 HZ

Observations et prévisions météorologiques de plus de 4000 aéroports (messages METAR et TAF).

Les stations disponibles sont représentées par des disques jaunes et rouges sur la carte.

Passer la souris dessus pour voir le nom de la station.

Cliquer dessus pour voir les observations et prévisions météorologiques.

Pour changer de carte: cliquez sur les boutons verts avec une croix noire pour zoomer, sur le bouton vert avec un tiret pour effectuer un zoom arrière, ou sur les flèches vertes pour les cartes adjacentes.


METAR-TAF: